Terminal Aerodrome Forecast
Issued by NWS

Home | Current Version | Previous Version | Text Only | Print | Product List | Glossary On
Versions: 1 2 3 4 5 6 7 8 9 10 11 12 13 14 15 16
340
FTUS44 KLZK 031121
TAFADF
TAF
KADF 031121Z 0312/0412 32004KT P6SM BKN050
     FM040100 VRB02KT P6SM FEW250
     FM040600 00000KT P6SM SKC=

USA.gov is the U.S. government's official web portal to all federal, state and local government web resources and services.